createdAt,value
2022-08-23T00:01:46.666Z,100851.13
2022-08-23T00:04:18.220Z,100843.38
2022-08-23T00:06:48.200Z,100848.13
2022-08-23T00:09:15.486Z,100845.09
2022-08-23T00:11:49.251Z,100845.22
2022-08-23T00:14:29.138Z,100844.94
2022-08-23T00:16:57.641Z,100849.34
2022-08-23T00:19:24.297Z,100843.78
2022-08-23T00:21:52.968Z,100841.31
2022-08-23T00:24:19.710Z,100840.03
2022-08-23T00:26:56.838Z,100836.25
2022-08-23T00:29:27.626Z,100828.81
2022-08-23T00:31:54.776Z,100836.09
2022-08-23T00:34:21.971Z,100831.56
2022-08-23T00:36:49.808Z,100826.38
2022-08-23T00:39:17.827Z,100828.50
2022-08-23T00:41:46.514Z,100823.50
2022-08-23T00:44:40.498Z,100826.22
2022-08-23T00:47:26.852Z,100822.88
2022-08-23T00:50:19.188Z,100821.84
2022-08-23T00:53:16.181Z,100830.91
2022-08-23T00:55:46.663Z,100832.41
2022-08-23T00:58:16.283Z,100838.63
2022-08-23T01:00:42.811Z,100837.25
2022-08-23T01:03:11.400Z,100831.09
2022-08-23T01:05:53.617Z,100837.00
2022-08-23T01:08:23.638Z,100846.56
2022-08-23T01:10:57.206Z,100847.50
2022-08-23T01:13:33.939Z,100841.19
2022-08-23T01:16:07.277Z,100849.34
2022-08-23T01:18:34.342Z,100843.78
2022-08-23T01:21:10.347Z,100848.00
2022-08-23T01:23:47.363Z,100855.97
2022-08-23T01:26:19.162Z,100851.75
2022-08-23T01:28:48.862Z,100854.81
2022-08-23T01:31:16.516Z,100857.31
2022-08-23T01:33:45.872Z,100858.13
2022-08-23T01:36:15.180Z,100860.41
2022-08-23T01:38:41.817Z,100855.09
2022-08-23T01:41:09.313Z,100855.47
2022-08-23T01:43:35.993Z,100863.19
2022-08-23T01:46:11.133Z,100861.31
2022-08-23T01:48:37.917Z,100861.19
2022-08-23T01:51:05.604Z,100867.28
2022-08-23T01:53:32.128Z,100872.59
2022-08-23T01:56:01.595Z,100870.53
2022-08-23T01:58:31.061Z,100877.56
2022-08-23T02:00:57.943Z,100872.47
2022-08-23T02:03:24.516Z,100873.88
2022-08-23T02:08:37.429Z,100871.81
2022-08-23T02:11:12.802Z,100875.81
2022-08-23T02:13:39.560Z,100880.59
2022-08-23T02:16:06.275Z,100872.50
2022-08-23T02:18:32.850Z,100881.84
2022-08-23T02:21:00.535Z,100873.31
2022-08-23T02:23:28.080Z,100873.63
2022-08-23T02:25:55.036Z,100878.38
2022-08-23T02:28:23.535Z,100874.16
2022-08-23T02:30:51.028Z,100875.94
2022-08-23T02:33:18.707Z,100875.78
2022-08-23T02:35:47.082Z,100876.81
2022-08-23T02:38:13.956Z,100886.84
2022-08-23T02:40:42.340Z,100888.50
2022-08-23T02:43:10.307Z,100889.56
2022-08-23T02:45:37.846Z,100884.31
2022-08-23T02:48:05.622Z,100888.19
2022-08-23T02:50:32.192Z,100889.38
2022-08-23T02:52:58.852Z,100891.44
2022-08-23T02:55:26.068Z,100890.91
2022-08-23T02:57:52.689Z,100890.31
2022-08-23T03:00:20.282Z,100888.72
2022-08-23T03:02:47.376Z,100894.81
2022-08-23T03:05:14.836Z,100885.84
2022-08-23T03:07:41.809Z,100882.81
2022-08-23T03:10:09.486Z,100889.56
2022-08-23T03:12:36.554Z,100887.19
2022-08-23T03:15:04.137Z,100894.09
2022-08-23T03:17:32.535Z,100893.34
2022-08-23T03:19:59.205Z,100895.34
2022-08-23T03:22:25.810Z,100898.47
2022-08-23T03:24:52.655Z,100901.56
2022-08-23T03:27:19.257Z,100899.97
2022-08-23T03:29:45.857Z,100899.09
2022-08-23T03:32:13.547Z,100902.41
2022-08-23T03:34:42.141Z,100903.03
2022-08-23T03:37:08.776Z,100906.13
2022-08-23T03:39:35.470Z,100914.72
2022-08-23T03:42:02.487Z,100906.28
2022-08-23T03:44:29.114Z,100907.38
2022-08-23T03:46:55.762Z,100916.00
2022-08-23T03:49:22.331Z,100915.59
2022-08-23T03:51:48.788Z,100913.41
2022-08-23T03:54:15.428Z,100918.09
2022-08-23T03:57:04.134Z,100920.31
2022-08-23T03:59:32.765Z,100919.31
2022-08-23T04:01:59.437Z,100925.84
2022-08-23T04:04:25.933Z,100928.13
2022-08-23T04:06:52.385Z,100931.16
2022-08-23T04:09:18.845Z,100934.03
2022-08-23T04:11:45.406Z,100940.16
2022-08-23T04:14:13.028Z,100945.09
2022-08-23T04:16:40.355Z,100941.63
2022-08-23T04:19:09.341Z,100945.50
2022-08-23T04:21:38.308Z,100943.25
2022-08-23T04:24:05.106Z,100952.66
2022-08-23T04:26:33.664Z,100949.22
2022-08-23T04:29:00.416Z,100950.25
2022-08-23T04:31:27.966Z,100955.53
2022-08-23T04:34:01.478Z,100959.00
2022-08-23T04:36:34.645Z,100961.44
2022-08-23T04:39:01.250Z,100960.44
2022-08-23T04:41:46.336Z,100962.72
2022-08-23T04:44:14.783Z,100968.81
2022-08-23T04:46:43.622Z,100965.53
2022-08-23T04:49:12.054Z,100976.16
2022-08-23T04:51:38.721Z,100975.16
2022-08-23T04:54:05.958Z,100978.03
2022-08-23T04:56:32.618Z,100985.78
2022-08-23T04:58:59.094Z,100973.72
2022-08-23T05:01:25.813Z,100972.88
2022-08-23T05:03:54.561Z,100983.97
2022-08-23T05:06:21.962Z,100984.97
2022-08-23T05:08:48.507Z,100983.13
2022-08-23T05:11:15.070Z,100985.59
2022-08-23T05:13:41.991Z,100989.91
2022-08-23T05:16:08.909Z,100995.78
2022-08-23T05:18:35.462Z,100993.28
2022-08-23T05:21:02.009Z,100999.63
2022-08-23T05:23:32.156Z,100994.09
2022-08-23T05:26:00.150Z,100999.22
2022-08-23T05:28:32.009Z,100997.78
2022-08-23T05:31:02.171Z,101008.78
2022-08-23T05:33:30.385Z,101010.00
2022-08-23T05:35:57.637Z,101012.38
2022-08-23T05:38:25.364Z,101018.50
2022-08-23T05:40:54.943Z,101019.09
2022-08-23T05:43:22.477Z,101015.56
2022-08-23T05:45:58.750Z,101014.94
2022-08-23T05:48:25.354Z,101016.09
2022-08-23T05:50:52.095Z,101017.94
2022-08-23T05:53:18.498Z,101023.94
2022-08-23T05:55:44.962Z,101024.88
2022-08-23T05:58:11.580Z,101025.19
2022-08-23T06:00:40.712Z,101021.69
2022-08-23T06:03:07.507Z,101026.59
2022-08-23T06:05:34.098Z,101027.06
2022-08-23T06:08:00.886Z,101030.00
2022-08-23T06:10:27.481Z,101021.88
2022-08-23T06:12:53.995Z,101027.81
2022-08-23T06:15:20.471Z,101028.69
2022-08-23T06:17:47.031Z,101035.38
2022-08-23T06:20:15.768Z,101034.59
2022-08-23T06:22:42.295Z,101033.44
2022-08-23T06:25:09.791Z,101035.88
2022-08-23T06:27:36.366Z,101034.63
2022-08-23T06:30:02.998Z,101031.13
2022-08-23T06:32:29.420Z,101043.19
2022-08-23T06:35:15.897Z,101037.63
2022-08-23T06:37:42.360Z,101040.59
2022-08-23T06:40:09.285Z,101046.72
2022-08-23T06:42:38.934Z,101050.50
2022-08-23T06:45:06.417Z,101047.31
2022-08-23T06:47:32.906Z,101046.00
2022-08-23T06:49:59.382Z,101039.72
2022-08-23T06:52:27.556Z,101046.56
2022-08-23T06:54:54.538Z,101051.84
2022-08-23T06:57:21.345Z,101055.50
2022-08-23T06:59:49.881Z,101050.19
2022-08-23T07:02:16.618Z,101060.56
2022-08-23T07:04:43.148Z,101054.53
2022-08-23T07:07:11.998Z,101059.41
2022-08-23T07:09:39.889Z,101058.41
2022-08-23T07:12:06.614Z,101061.06
2022-08-23T07:14:33.618Z,101052.63
2022-08-23T07:17:02.355Z,101055.44
2022-08-23T07:19:32.962Z,101056.25
2022-08-23T07:22:01.081Z,101054.28
2022-08-23T07:24:32.915Z,101055.41
2022-08-23T07:27:01.576Z,101059.78
2022-08-23T07:29:29.962Z,101062.03
2022-08-23T07:31:57.956Z,101068.28
2022-08-23T07:34:26.162Z,101072.00
2022-08-23T07:36:53.637Z,101073.38
2022-08-23T07:39:21.963Z,101069.31
2022-08-23T07:41:49.499Z,101064.47
2022-08-23T07:44:18.166Z,101061.75
2022-08-23T07:46:46.268Z,101075.50
2022-08-23T07:49:13.134Z,101068.63
2022-08-23T07:51:42.298Z,101078.50
2022-08-23T07:54:10.543Z,101084.50
2022-08-23T07:56:37.429Z,101075.97
2022-08-23T07:59:05.959Z,101081.66
2022-08-23T08:01:33.476Z,101083.88
2022-08-23T08:04:02.113Z,101086.91
2022-08-23T08:06:32.620Z,101078.81
2022-08-23T08:08:59.790Z,101078.31
2022-08-23T08:11:33.846Z,101081.28
2022-08-23T08:14:07.638Z,101079.91
2022-08-23T08:16:41.461Z,101076.16
2022-08-23T08:19:09.642Z,101084.25
2022-08-23T08:21:41.856Z,101081.47
2022-08-23T08:24:11.286Z,101079.84
2022-08-23T08:26:37.825Z,101077.88
2022-08-23T08:29:06.046Z,101082.97
2022-08-23T08:31:34.334Z,101078.03
2022-08-23T08:34:00.793Z,101075.03
2022-08-23T08:36:32.236Z,101083.13
2022-08-23T08:39:00.772Z,101086.53
2022-08-23T08:42:06.893Z,101091.00
2022-08-23T08:44:49.654Z,101083.66
2022-08-23T08:47:40.832Z,101089.56
2022-08-23T08:50:28.518Z,101083.31
2022-08-23T08:53:02.373Z,101083.41
2022-08-23T08:55:38.812Z,101093.91
2022-08-23T08:58:06.856Z,101091.72
2022-08-23T09:00:39.090Z,101092.72
2022-08-23T09:03:12.365Z,101094.50
2022-08-23T09:06:03.187Z,101090.75
2022-08-23T09:08:51.399Z,101089.47
2022-08-23T09:11:51.137Z,101084.84
2022-08-23T09:14:26.627Z,101081.34
2022-08-23T09:17:05.838Z,101095.19
2022-08-23T09:19:37.333Z,101090.41
2022-08-23T09:22:13.477Z,101088.69
2022-08-23T09:24:40.986Z,101093.38
2022-08-23T09:27:10.135Z,101090.00
2022-08-23T09:29:39.366Z,101089.06
2022-08-23T09:32:33.405Z,101088.69
2022-08-23T09:35:26.379Z,101094.81
2022-08-23T09:37:53.226Z,101093.91
2022-08-23T09:40:28.654Z,101088.88
2022-08-23T09:43:10.124Z,101085.66
2022-08-23T09:45:39.440Z,101089.84
2022-08-23T09:48:11.907Z,101098.25
2022-08-23T09:50:45.465Z,101101.41
2022-08-23T09:53:15.396Z,101094.84
2022-08-23T09:55:54.514Z,101088.09
2022-08-23T09:58:36.448Z,101090.59
2022-08-23T10:01:27.012Z,101087.53
2022-08-23T10:04:18.148Z,101092.50
2022-08-23T10:06:46.348Z,101087.69
2022-08-23T10:09:28.699Z,101078.44
2022-08-23T10:11:57.943Z,101083.81
2022-08-23T10:14:30.031Z,101084.63
2022-08-23T10:17:04.540Z,101084.91
2022-08-23T10:19:37.114Z,101081.03
2022-08-23T10:22:19.999Z,101075.78
2022-08-23T10:25:11.716Z,101073.38
2022-08-23T10:28:30.765Z,101077.06
2022-08-23T10:31:19.646Z,101087.56
2022-08-23T10:34:14.058Z,101072.34
2022-08-23T10:36:44.421Z,101072.34
2022-08-23T10:39:26.177Z,101071.84
2022-08-23T10:41:58.791Z,101072.50
2022-08-23T10:44:33.639Z,101065.09
2022-08-23T10:47:41.710Z,101069.94
2022-08-23T10:50:15.117Z,101073.16
2022-08-23T10:52:55.262Z,101073.91
2022-08-23T10:55:43.866Z,101063.41
2022-08-23T10:58:20.163Z,101070.47
2022-08-23T11:00:47.180Z,101062.53
2022-08-23T11:03:29.071Z,101061.59
2022-08-23T11:06:30.041Z,101057.06
2022-08-23T11:09:04.053Z,101057.09
2022-08-23T11:11:46.434Z,101050.97
2022-08-23T11:14:31.073Z,101054.69
2022-08-23T11:17:28.204Z,101058.38
2022-08-23T11:19:56.217Z,101056.41
2022-08-23T11:22:31.107Z,101055.06
2022-08-23T11:25:04.563Z,101050.31
2022-08-23T11:27:36.122Z,101048.06
2022-08-23T11:30:33.306Z,101042.59
2022-08-23T11:33:23.989Z,101038.31
2022-08-23T11:36:16.597Z,101041.13
2022-08-23T11:38:49.113Z,101047.03
2022-08-23T11:41:24.637Z,101040.03
2022-08-23T11:43:57.308Z,101042.50
2022-08-23T11:46:31.463Z,101035.53
2022-08-23T11:49:05.054Z,101032.66
2022-08-23T11:52:02.368Z,101034.66
2022-08-23T11:54:43.878Z,101041.72
2022-08-23T11:58:02.585Z,101042.22
2022-08-23T12:00:55.137Z,101041.56
2022-08-23T12:03:33.885Z,101039.31
2022-08-23T12:06:12.855Z,101038.63
2022-08-23T12:08:50.758Z,101032.91
2022-08-23T12:11:19.672Z,101035.16
2022-08-23T12:13:51.272Z,101024.41
2022-08-23T12:16:21.296Z,101028.59
2022-08-23T12:18:50.621Z,101027.63
2022-08-23T12:21:39.575Z,101016.38
2022-08-23T12:24:44.540Z,101025.03
2022-08-23T12:27:25.622Z,101016.03
2022-08-23T12:29:59.259Z,101016.69
2022-08-23T12:32:57.748Z,101015.25
2022-08-23T12:36:01.810Z,101012.66
2022-08-23T12:38:53.744Z,101015.91
2022-08-23T12:41:28.421Z,101013.59
2022-08-23T12:44:08.670Z,101015.53
2022-08-23T12:46:37.373Z,101013.06
2022-08-23T12:49:06.729Z,101016.81
2022-08-23T12:51:39.849Z,101020.44
2022-08-23T12:54:17.738Z,101019.59
2022-08-23T12:56:49.208Z,101019.19
2022-08-23T12:59:36.896Z,101017.47
2022-08-23T13:02:10.027Z,101005.97
2022-08-23T13:04:39.276Z,101011.34
2022-08-23T13:07:09.959Z,101011.06
2022-08-23T13:09:40.741Z,101011.06
2022-08-23T13:12:09.064Z,101010.25
2022-08-23T13:14:50.356Z,101008.19
2022-08-23T13:17:31.611Z,101011.09
2022-08-23T13:20:01.117Z,101017.16
2022-08-23T13:22:29.594Z,101010.88
2022-08-23T13:25:29.087Z,101008.50
2022-08-23T13:28:06.578Z,101010.59
2022-08-23T13:30:37.422Z,101017.81
2022-08-23T13:33:03.924Z,101016.38
2022-08-23T13:35:47.002Z,101012.03
2022-08-23T13:38:20.562Z,101010.06
2022-08-23T13:41:13.736Z,101015.03
2022-08-23T13:43:51.299Z,101005.25
2022-08-23T13:46:32.098Z,101011.03
2022-08-23T13:49:03.851Z,101013.19
2022-08-23T13:51:30.246Z,101012.13
2022-08-23T13:53:58.962Z,101008.34
2022-08-23T13:56:27.096Z,101006.97
2022-08-23T13:59:00.306Z,101003.03
2022-08-23T14:01:27.159Z,100997.19
2022-08-23T14:03:54.060Z,101002.88
2022-08-23T14:06:20.658Z,101000.28
2022-08-23T14:08:48.370Z,100994.72
2022-08-23T14:11:16.030Z,101002.94
2022-08-23T14:13:45.782Z,100994.97
2022-08-23T14:16:39.208Z,100997.75
2022-08-23T14:19:54.764Z,100990.06
2022-08-23T14:21:58.207Z,100990.69
2022-08-23T14:24:26.914Z,100993.91
2022-08-23T14:26:53.839Z,100996.28
2022-08-23T14:29:22.448Z,101006.22
2022-08-23T14:31:50.515Z,101002.03
2022-08-23T14:34:17.098Z,101001.75
2022-08-23T14:37:21.681Z,100998.53
2022-08-23T14:39:30.522Z,100998.34
2022-08-23T14:41:57.605Z,101003.50
2022-08-23T14:44:24.322Z,100999.81
2022-08-23T14:46:50.798Z,101003.22
2022-08-23T14:49:18.193Z,101003.72
2022-08-23T14:51:46.399Z,101008.09
2022-08-23T14:54:25.328Z,101011.91
2022-08-23T14:56:53.315Z,101007.72
2022-08-23T14:59:20.585Z,101007.81
2022-08-23T15:01:49.606Z,100999.59
2022-08-23T15:04:22.974Z,101003.91
2022-08-23T15:07:15.973Z,100996.66
2022-08-23T15:09:38.374Z,100992.84
2022-08-23T15:14:52.215Z,101004.34
2022-08-23T15:17:18.723Z,101001.78
2022-08-23T15:19:45.182Z,101005.13
2022-08-23T15:22:18.327Z,101005.72
2022-08-23T15:24:47.827Z,100995.13
2022-08-23T15:27:14.294Z,100999.00
2022-08-23T15:29:40.737Z,100993.38
2022-08-23T15:32:07.809Z,100994.59
2022-08-23T15:34:37.295Z,100996.06
2022-08-23T15:37:06.567Z,101001.44
2022-08-23T15:39:33.025Z,100993.22
2022-08-23T15:41:59.491Z,100990.50
2022-08-23T15:44:25.965Z,100991.28
2022-08-23T15:46:54.373Z,100988.88
2022-08-23T15:49:31.740Z,100983.59
2022-08-23T15:52:00.590Z,100982.19
2022-08-23T15:54:27.088Z,100981.53
2022-08-23T15:56:53.618Z,100984.69
2022-08-23T15:59:21.663Z,100977.44
2022-08-23T16:01:48.290Z,100983.19
2022-08-23T16:04:14.796Z,100978.19
2022-08-23T16:06:42.071Z,100982.94
2022-08-23T16:09:16.933Z,100975.88
2022-08-23T16:11:43.553Z,100983.34
2022-08-23T16:14:10.406Z,100982.63
2022-08-23T16:16:40.416Z,100975.47
2022-08-23T16:19:08.236Z,100976.38
2022-08-23T16:21:35.938Z,100974.47
2022-08-23T16:24:02.814Z,100979.28
2022-08-23T16:26:34.857Z,100980.88
2022-08-23T16:29:01.879Z,100992.63
2022-08-23T16:31:38.770Z,100979.78
2022-08-23T16:34:10.204Z,100980.66
2022-08-23T16:36:38.497Z,100982.97
2022-08-23T16:39:05.849Z,100980.38
2022-08-23T16:41:32.401Z,100980.44
2022-08-23T16:43:58.903Z,100976.72
2022-08-23T16:46:25.804Z,100979.56
2022-08-23T16:48:52.294Z,100976.44
2022-08-23T16:51:19.502Z,100981.88
2022-08-23T16:53:57.080Z,100981.44
2022-08-23T16:56:30.969Z,100987.53
2022-08-23T16:58:57.534Z,100990.63
2022-08-23T17:01:24.272Z,100987.09
2022-08-23T17:03:51.135Z,100991.00
2022-08-23T17:06:18.206Z,100984.06
2022-08-23T17:08:45.096Z,100981.41
2022-08-23T17:11:15.659Z,100983.44
2022-08-23T17:13:42.248Z,100983.50
2022-08-23T17:16:10.698Z,100983.22
2022-08-23T17:18:38.539Z,100986.22
2022-08-23T17:21:06.089Z,100986.81
2022-08-23T17:23:32.996Z,100985.78
2022-08-23T17:26:00.556Z,100994.97
2022-08-23T17:28:28.194Z,100993.50
2022-08-23T17:30:58.502Z,100991.16
2022-08-23T17:33:25.104Z,101006.97
2022-08-23T17:35:51.732Z,101001.91
2022-08-23T17:38:18.459Z,101005.56
2022-08-23T17:40:45.097Z,101004.56
2022-08-23T17:43:12.719Z,101006.91
2022-08-23T17:45:48.770Z,101014.56
2022-08-23T17:48:17.550Z,101010.94
2022-08-23T17:50:46.126Z,101010.03
2022-08-23T17:53:14.356Z,101016.59
2022-08-23T17:55:41.413Z,101014.75
2022-08-23T17:58:10.010Z,101022.97
2022-08-23T18:00:38.163Z,101022.22
2022-08-23T18:03:05.287Z,101027.97
2022-08-23T18:05:33.638Z,101031.53
2022-08-23T18:08:00.933Z,101022.16
2022-08-23T18:10:29.799Z,101032.41
2022-08-23T18:12:57.185Z,101029.22
2022-08-23T18:15:24.288Z,101026.28
2022-08-23T18:17:51.583Z,101032.75
2022-08-23T18:20:23.099Z,101031.69
2022-08-23T18:22:50.753Z,101034.41
2022-08-23T18:25:17.441Z,101030.38
2022-08-23T18:28:03.639Z,101037.63
2022-08-23T18:30:30.596Z,101042.75
2022-08-23T18:32:57.653Z,101047.56
2022-08-23T18:35:29.305Z,101044.63
2022-08-23T18:37:55.975Z,101054.28
2022-08-23T18:40:22.823Z,101052.13
2022-08-23T18:42:49.413Z,101057.78
2022-08-23T18:45:15.910Z,101060.13
2022-08-23T18:47:42.646Z,101060.91
2022-08-23T18:50:12.226Z,101066.00
2022-08-23T18:52:38.949Z,101067.28
2022-08-23T18:55:05.867Z,101068.91
2022-08-23T18:57:33.398Z,101066.69
2022-08-23T18:59:59.816Z,101070.94
2022-08-23T19:02:26.383Z,101073.63
2022-08-23T19:04:55.925Z,101080.78
2022-08-23T19:07:22.548Z,101083.66
2022-08-23T19:09:49.276Z,101083.06
2022-08-23T19:12:15.886Z,101089.75
2022-08-23T19:14:42.291Z,101093.00
2022-08-23T19:17:09.230Z,101098.09
2022-08-23T19:19:35.956Z,101099.56
2022-08-23T19:22:03.747Z,101106.47
2022-08-23T19:24:30.657Z,101104.63
2022-08-23T19:26:57.096Z,101101.38
2022-08-23T19:29:23.513Z,101112.88
2022-08-23T19:31:50.301Z,101108.75
2022-08-23T19:34:18.795Z,101109.03
2022-08-23T19:36:56.849Z,101103.78
2022-08-23T19:39:27.901Z,101109.88
2022-08-23T19:41:54.442Z,101114.19
2022-08-23T19:44:21.310Z,101115.09
2022-08-23T19:46:48.268Z,101110.97
2022-08-23T19:49:15.245Z,101108.63
2022-08-23T19:51:43.147Z,101114.41
2022-08-23T19:54:12.389Z,101121.47
2022-08-23T19:56:48.449Z,101119.19
2022-08-23T19:59:21.110Z,101120.75
2022-08-23T20:01:49.253Z,101126.34
2022-08-23T20:04:16.295Z,101126.78
2022-08-23T20:06:43.234Z,101119.78
2022-08-23T20:09:10.480Z,101129.94
2022-08-23T20:11:37.271Z,101123.50
2022-08-23T20:14:05.384Z,101133.69
2022-08-23T20:16:32.702Z,101137.75
2022-08-23T20:19:00.331Z,101141.72
2022-08-23T20:21:28.571Z,101139.47
2022-08-23T20:24:01.365Z,101139.47
2022-08-23T20:26:30.003Z,101144.03
2022-08-23T20:28:59.784Z,101142.66
2022-08-23T20:31:30.397Z,101143.06
2022-08-23T20:33:57.457Z,101139.66
2022-08-23T20:36:27.870Z,101140.38
2022-08-23T20:38:59.965Z,101136.88
2022-08-23T20:41:31.964Z,101144.28
2022-08-23T20:44:00.285Z,101145.38
2022-08-23T20:46:26.878Z,101146.22
2022-08-23T20:48:54.129Z,101142.34
2022-08-23T20:51:21.268Z,101142.19
2022-08-23T20:53:47.785Z,101144.63
2022-08-23T20:56:14.524Z,101143.25
2022-08-23T20:58:40.986Z,101143.03
2022-08-23T21:01:09.228Z,101143.50
2022-08-23T21:03:37.771Z,101144.31
2022-08-23T21:06:09.523Z,101144.78
2022-08-23T21:08:42.518Z,101148.47
2022-08-23T21:11:10.273Z,101154.06
2022-08-23T21:13:37.142Z,101150.72
2022-08-23T21:16:03.942Z,101154.53
2022-08-23T21:18:30.392Z,101148.53
2022-08-23T21:20:56.848Z,101152.84
2022-08-23T21:23:23.682Z,101157.41
2022-08-23T21:25:54.719Z,101152.81
2022-08-23T21:28:21.742Z,101160.84
2022-08-23T21:30:48.666Z,101153.75
2022-08-23T21:33:16.115Z,101154.81
2022-08-23T21:35:43.429Z,101154.81
2022-08-23T21:38:10.611Z,101156.53
2022-08-23T21:40:37.885Z,101157.72
2022-08-23T21:43:04.369Z,101153.00
2022-08-23T21:45:30.984Z,101163.22
2022-08-23T21:47:58.630Z,101155.53
2022-08-23T21:50:28.675Z,101164.34
2022-08-23T21:52:56.361Z,101154.97
2022-08-23T21:55:23.358Z,101154.59
2022-08-23T21:58:00.893Z,101163.19
2022-08-23T22:00:27.299Z,101150.63
2022-08-23T22:02:54.270Z,101156.63
2022-08-23T22:05:20.783Z,101155.72
2022-08-23T22:07:47.316Z,101155.03
2022-08-23T22:10:14.156Z,101154.22
2022-08-23T22:12:41.927Z,101158.22
2022-08-23T22:15:09.083Z,101158.56
2022-08-23T22:17:35.534Z,101158.81
2022-08-23T22:20:04.197Z,101162.31
2022-08-23T22:22:32.114Z,101160.09
2022-08-23T22:24:59.353Z,101165.31
2022-08-23T22:27:26.681Z,101156.38
2022-08-23T22:29:53.469Z,101164.16
2022-08-23T22:32:21.518Z,101168.94
2022-08-23T22:34:47.938Z,101162.19
2022-08-23T22:37:15.222Z,101163.50
2022-08-23T22:39:41.767Z,101163.38
2022-08-23T22:42:10.029Z,101166.38
2022-08-23T22:44:37.124Z,101165.09
2022-08-23T22:47:03.666Z,101172.56
2022-08-23T22:49:30.901Z,101173.88
2022-08-23T22:51:57.855Z,101166.44
2022-08-23T22:54:25.039Z,101162.59
2022-08-23T22:56:53.332Z,101162.13
2022-08-23T22:59:22.655Z,101161.69
2022-08-23T23:01:56.071Z,101165.63
2022-08-23T23:04:26.291Z,101169.56
2022-08-23T23:06:54.730Z,101163.56
2022-08-23T23:09:21.418Z,101171.91
2022-08-23T23:11:48.754Z,101163.19
2022-08-23T23:14:17.363Z,101169.13
2022-08-23T23:16:45.048Z,101165.66
2022-08-23T23:19:30.858Z,101162.63
2022-08-23T23:21:58.010Z,101164.00
2022-08-23T23:24:29.236Z,101165.78
2022-08-23T23:26:56.514Z,101163.56
2022-08-23T23:29:23.448Z,101166.81
2022-08-23T23:31:50.001Z,101169.47
2022-08-23T23:34:16.658Z,101165.19
2022-08-23T23:36:43.170Z,101158.22
2022-08-23T23:39:14.868Z,101161.91
2022-08-23T23:41:42.947Z,101162.41
2022-08-23T23:44:09.731Z,101160.88
2022-08-23T23:46:36.181Z,101159.84
2022-08-23T23:49:02.689Z,101167.88
2022-08-23T23:51:30.766Z,101165.88
2022-08-23T23:53:59.074Z,101168.56
2022-08-23T23:56:28.871Z,101163.91
2022-08-23T23:58:56.495Z,101163.78
